createdAt,value
2023-03-02T00:00:19.129Z,101312.72
2023-03-02T00:02:45.908Z,101310.41
2023-03-02T00:05:14.570Z,101311.78
2023-03-02T00:07:41.293Z,101310.59
2023-03-02T00:10:08.572Z,101316.13
2023-03-02T00:12:42.593Z,101323.06
2023-03-02T00:15:09.786Z,101320.22
2023-03-02T00:17:37.287Z,101316.09
2023-03-02T00:20:11.122Z,101315.53
2023-03-02T00:22:54.344Z,101322.66
2023-03-02T00:25:21.022Z,101327.03
2023-03-02T00:27:47.690Z,101318.06
2023-03-02T00:30:26.580Z,101315.25
2023-03-02T00:33:13.492Z,101311.50
2023-03-02T00:35:51.689Z,101308.97
2023-03-02T00:38:18.429Z,101307.19
2023-03-02T00:40:46.360Z,101307.75
2023-03-02T00:43:13.536Z,101304.84
2023-03-02T00:45:43.165Z,101302.03
2023-03-02T00:48:16.076Z,101293.22
2023-03-02T00:50:43.006Z,101300.88
2023-03-02T00:53:14.510Z,101308.91
2023-03-02T00:55:52.997Z,101313.47
2023-03-02T00:58:27.945Z,101316.16
2023-03-02T01:00:55.750Z,101310.47
2023-03-02T01:03:22.727Z,101323.03
2023-03-02T01:05:58.904Z,101309.97
2023-03-02T01:08:25.555Z,101310.72
2023-03-02T01:10:54.303Z,101309.09
2023-03-02T01:13:28.866Z,101312.44
2023-03-02T01:16:07.328Z,101308.06
2023-03-02T01:18:38.666Z,101303.00
2023-03-02T01:21:07.655Z,101304.44
2023-03-02T01:23:42.844Z,101307.00
2023-03-02T01:26:09.904Z,101303.44
2023-03-02T01:28:36.803Z,101304.56
2023-03-02T01:31:06.660Z,101295.59
2023-03-02T01:33:39.417Z,101299.50
2023-03-02T01:36:06.701Z,101304.00
2023-03-02T01:38:33.419Z,101297.75
2023-03-02T01:41:00.110Z,101296.25
2023-03-02T01:43:32.836Z,101292.13
2023-03-02T01:46:15.877Z,101290.25
2023-03-02T01:48:48.452Z,101285.25
2023-03-02T01:51:26.529Z,101288.16
2023-03-02T01:54:06.462Z,101282.00
2023-03-02T01:56:36.176Z,101279.50
2023-03-02T01:59:16.772Z,101271.50
2023-03-02T02:01:45.756Z,101270.25
2023-03-02T02:04:12.603Z,101274.38
2023-03-02T02:06:45.709Z,101270.84
2023-03-02T02:09:15.312Z,101270.19
2023-03-02T02:11:43.390Z,101269.59
2023-03-02T02:14:16.374Z,101264.25
2023-03-02T02:16:43.101Z,101261.91
2023-03-02T02:19:50.134Z,101267.31
2023-03-02T02:22:32.375Z,101261.41
2023-03-02T02:25:02.788Z,101259.84
2023-03-02T02:27:33.754Z,101260.56
2023-03-02T02:30:04.085Z,101266.34
2023-03-02T02:32:42.052Z,101269.19
2023-03-02T02:35:29.998Z,101270.50
2023-03-02T02:38:13.073Z,101265.84
2023-03-02T02:40:58.345Z,101262.59
2023-03-02T02:43:39.819Z,101257.13
2023-03-02T02:46:06.608Z,101251.16
2023-03-02T02:48:36.495Z,101256.59
2023-03-02T02:51:15.812Z,101250.84
2023-03-02T02:54:02.339Z,101258.34
2023-03-02T02:56:38.676Z,101248.25
2023-03-02T02:59:21.112Z,101246.31
2023-03-02T03:01:49.015Z,101256.78
2023-03-02T03:04:20.197Z,101251.72
2023-03-02T03:06:54.584Z,101251.13
2023-03-02T03:09:22.043Z,101244.13
2023-03-02T03:11:52.286Z,101248.00
2023-03-02T03:14:29.632Z,101241.97
2023-03-02T03:16:57.037Z,101238.97
2023-03-02T03:19:27.916Z,101235.22
2023-03-02T03:22:00.865Z,101234.75
2023-03-02T03:24:37.373Z,101238.34
2023-03-02T03:27:06.272Z,101237.59
2023-03-02T03:29:38.093Z,101238.69
2023-03-02T03:32:07.093Z,101241.56
2023-03-02T03:34:40.512Z,101245.34
2023-03-02T03:37:26.309Z,101247.84
2023-03-02T03:39:53.412Z,101247.00
2023-03-02T03:42:26.047Z,101247.06
2023-03-02T03:44:54.737Z,101247.94
2023-03-02T03:47:23.975Z,101246.00
2023-03-02T03:50:00.733Z,101251.13
2023-03-02T03:52:39.114Z,101251.19
2023-03-02T03:55:12.552Z,101251.31
2023-03-02T03:57:41.087Z,101246.88
2023-03-02T04:00:10.780Z,101248.25
2023-03-02T04:02:56.005Z,101235.09
2023-03-02T04:05:23.360Z,101238.97
2023-03-02T04:07:52.898Z,101246.72
2023-03-02T04:10:23.107Z,101239.03
2023-03-02T04:12:52.222Z,101237.03
2023-03-02T04:15:18.945Z,101243.72
2023-03-02T04:17:47.633Z,101235.47
2023-03-02T04:20:21.035Z,101231.56
2023-03-02T04:22:51.919Z,101235.25
2023-03-02T04:25:31.029Z,101234.91
2023-03-02T04:28:17.650Z,101227.25
2023-03-02T04:30:45.488Z,101234.03
2023-03-02T04:33:15.239Z,101237.66
2023-03-02T04:35:46.214Z,101232.34
2023-03-02T04:38:16.265Z,101240.56
2023-03-02T04:40:46.204Z,101223.47
2023-03-02T04:43:15.890Z,101233.13
2023-03-02T04:45:51.514Z,101230.84
2023-03-02T04:48:23.495Z,101226.59
2023-03-02T04:50:50.210Z,101224.44
2023-03-02T04:53:25.716Z,101220.66
2023-03-02T04:55:58.785Z,101222.81
2023-03-02T04:58:28.080Z,101223.50
2023-03-02T05:01:02.193Z,101218.66
2023-03-02T05:03:29.256Z,101209.84
2023-03-02T05:06:03.375Z,101213.03
2023-03-02T05:08:33.841Z,101211.09
2023-03-02T05:11:01.054Z,101211.75
2023-03-02T05:13:27.976Z,101207.94
2023-03-02T05:16:03.108Z,101208.69
2023-03-02T05:18:32.171Z,101199.53
2023-03-02T05:20:58.896Z,101201.13
2023-03-02T05:23:35.213Z,101208.50
2023-03-02T05:26:38.812Z,101207.56
2023-03-02T05:29:05.774Z,101210.19
2023-03-02T05:31:48.320Z,101202.44
2023-03-02T05:37:22.213Z,101201.13
2023-03-02T05:39:56.795Z,101201.13
2023-03-02T05:42:24.658Z,101203.81
2023-03-02T05:44:57.505Z,101211.69
2023-03-02T05:47:49.842Z,101209.44
2023-03-02T05:50:27.003Z,101206.06
2023-03-02T05:53:00.131Z,101210.94
2023-03-02T05:55:26.865Z,101210.44
2023-03-02T05:57:53.616Z,101213.75
2023-03-02T06:00:49.407Z,101212.06
2023-03-02T06:03:16.714Z,101214.56
2023-03-02T06:05:45.081Z,101212.63
2023-03-02T06:08:21.513Z,101217.19
2023-03-02T06:10:50.747Z,101215.75
2023-03-02T06:13:25.446Z,101219.28
2023-03-02T06:15:53.205Z,101227.34
2023-03-02T06:18:19.805Z,101225.47
2023-03-02T06:20:46.704Z,101224.16
2023-03-02T06:23:16.982Z,101234.47
2023-03-02T06:25:48.633Z,101230.63
2023-03-02T06:28:29.273Z,101239.16
2023-03-02T06:30:58.527Z,101243.66
2023-03-02T06:33:25.201Z,101243.84
2023-03-02T06:35:56.956Z,101236.91
2023-03-02T06:38:23.817Z,101238.03
2023-03-02T06:40:50.702Z,101235.31
2023-03-02T06:43:17.399Z,101234.38
2023-03-02T06:45:44.088Z,101234.94
2023-03-02T06:48:19.862Z,101231.41
2023-03-02T06:50:46.531Z,101235.72
2023-03-02T06:53:17.680Z,101224.91
2023-03-02T06:55:47.891Z,101219.47
2023-03-02T06:58:19.150Z,101225.59
2023-03-02T07:00:46.173Z,101222.66
2023-03-02T07:03:37.787Z,101230.47
2023-03-02T07:06:05.179Z,101228.59
2023-03-02T07:08:31.772Z,101218.34
2023-03-02T07:10:58.426Z,101213.47
2023-03-02T07:13:31.756Z,101213.66
2023-03-02T07:15:58.541Z,101208.88
2023-03-02T07:18:25.163Z,101207.22
2023-03-02T07:20:51.817Z,101205.53
2023-03-02T07:23:18.551Z,101196.16
2023-03-02T07:25:51.620Z,101196.25
2023-03-02T07:28:18.260Z,101183.13
2023-03-02T07:30:45.062Z,101185.09
2023-03-02T07:33:21.575Z,101193.78
2023-03-02T07:35:48.688Z,101191.47
2023-03-02T07:38:15.534Z,101191.34
2023-03-02T07:40:43.196Z,101184.03
2023-03-02T07:43:19.311Z,101186.56
2023-03-02T07:45:46.277Z,101185.72
2023-03-02T07:48:23.736Z,101174.75
2023-03-02T07:50:50.367Z,101168.72
2023-03-02T07:53:17.058Z,101173.34
2023-03-02T08:00:32.215Z,101160.03
2023-03-02T08:03:50.401Z,101156.19
2023-03-02T08:06:23.804Z,101164.34
2023-03-02T08:09:10.007Z,101169.16
2023-03-02T08:11:42.031Z,101171.66
2023-03-02T08:17:52.811Z,101172.06
2023-03-02T08:20:30.346Z,101166.34
2023-03-02T08:23:05.562Z,101165.28
2023-03-02T08:26:14.294Z,101159.63
2023-03-02T08:29:13.691Z,101150.53
2023-03-02T08:31:43.260Z,101160.16
2023-03-02T08:34:16.682Z,101156.47
2023-03-02T08:39:41.471Z,101155.84
2023-03-02T08:45:09.637Z,101158.41
2023-03-02T08:47:52.298Z,101159.19
2023-03-02T08:50:19.309Z,101148.56
2023-03-02T08:52:48.422Z,101157.19
2023-03-02T08:55:24.232Z,101157.59
2023-03-02T08:57:51.012Z,101149.50
2023-03-02T09:00:18.705Z,101146.03
2023-03-02T09:02:51.386Z,101143.41
2023-03-02T09:05:18.146Z,101145.69
2023-03-02T09:07:44.830Z,101147.69
2023-03-02T09:10:11.527Z,101144.56
2023-03-02T09:12:38.256Z,101151.59
2023-03-02T09:15:14.094Z,101149.47
2023-03-02T09:17:40.858Z,101151.28
2023-03-02T09:20:08.812Z,101158.44
2023-03-02T09:22:48.520Z,101145.50
2023-03-02T09:25:15.668Z,101156.44
2023-03-02T09:27:42.391Z,101150.53
2023-03-02T09:30:13.995Z,101152.13
2023-03-02T09:32:41.333Z,101146.44
2023-03-02T09:35:08.499Z,101148.13
2023-03-02T09:37:37.407Z,101141.41
2023-03-02T09:40:31.699Z,101140.03
2023-03-02T09:43:29.694Z,101142.75
2023-03-02T09:46:14.680Z,101147.47
2023-03-02T09:48:46.243Z,101138.72
2023-03-02T09:51:32.414Z,101141.03
2023-03-02T09:54:04.787Z,101149.09
2023-03-02T09:56:35.667Z,101154.13
2023-03-02T09:59:13.988Z,101154.75
2023-03-02T10:01:44.590Z,101158.00
2023-03-02T10:04:34.600Z,101155.06
2023-03-02T10:07:19.068Z,101163.91
2023-03-02T10:09:49.990Z,101163.75
2023-03-02T10:12:39.109Z,101153.66
2023-03-02T10:15:10.209Z,101153.28
2023-03-02T10:18:05.736Z,101149.50
2023-03-02T10:20:37.160Z,101147.34
2023-03-02T10:23:40.132Z,101154.66
2023-03-02T10:26:37.862Z,101145.88
2023-03-02T10:29:10.394Z,101147.41
2023-03-02T10:31:47.123Z,101142.66
2023-03-02T10:34:14.068Z,101139.38
2023-03-02T10:36:43.711Z,101137.97
2023-03-02T10:39:16.731Z,101137.34
2023-03-02T10:41:57.815Z,101126.38
2023-03-02T10:44:30.675Z,101121.97
2023-03-02T10:46:57.484Z,101115.16
2023-03-02T10:49:36.707Z,101105.13
2023-03-02T10:52:13.473Z,101089.22
2023-03-02T10:54:40.522Z,101091.53
2023-03-02T10:57:21.796Z,101081.53
2023-03-02T10:59:52.055Z,101082.97
2023-03-02T11:02:28.437Z,101082.25
2023-03-02T11:04:57.325Z,101089.13
2023-03-02T11:07:27.830Z,101079.41
2023-03-02T11:10:08.144Z,101073.16
2023-03-02T11:12:44.770Z,101070.78
2023-03-02T11:15:32.684Z,101075.09
2023-03-02T11:18:27.533Z,101068.00
2023-03-02T11:21:22.252Z,101066.22
2023-03-02T11:24:03.910Z,101060.94
2023-03-02T11:26:39.377Z,101059.97
2023-03-02T11:29:17.868Z,101057.81
2023-03-02T11:31:53.564Z,101066.78
2023-03-02T11:34:54.204Z,101061.38
2023-03-02T11:37:41.706Z,101063.75
2023-03-02T11:40:26.097Z,101061.66
2023-03-02T11:42:53.462Z,101059.44
2023-03-02T11:48:22.392Z,101054.50
2023-03-02T11:50:59.343Z,101052.06
2023-03-02T11:53:31.747Z,101055.81
2023-03-02T11:55:58.539Z,101047.28
2023-03-02T11:58:33.359Z,101047.34
2023-03-02T12:01:01.165Z,101044.97
2023-03-02T12:03:27.826Z,101039.22
2023-03-02T12:06:22.462Z,101037.91
2023-03-02T12:08:52.715Z,101043.44
2023-03-02T12:11:19.337Z,101038.69
2023-03-02T12:13:46.811Z,101027.34
2023-03-02T12:16:24.290Z,101021.59
2023-03-02T12:21:43.466Z,101018.53
2023-03-02T12:24:29.871Z,101012.25
2023-03-02T12:27:27.231Z,101015.97
2023-03-02T12:30:11.254Z,101021.69
2023-03-02T12:32:38.355Z,101023.69
2023-03-02T12:35:08.173Z,101024.50
2023-03-02T12:37:45.530Z,101029.88
2023-03-02T12:40:15.058Z,101014.00
2023-03-02T12:42:41.679Z,101025.00
2023-03-02T12:45:15.115Z,101020.72
2023-03-02T12:47:44.966Z,101020.03
2023-03-02T12:50:27.412Z,101017.88
2023-03-02T12:52:58.622Z,101019.56
2023-03-02T12:55:25.501Z,101003.72
2023-03-02T12:57:59.928Z,101015.72
2023-03-02T13:00:30.169Z,101011.03
2023-03-02T13:02:58.460Z,101006.09
2023-03-02T13:05:30.730Z,101000.78
2023-03-02T13:08:00.628Z,101001.25
2023-03-02T13:10:36.129Z,101003.91
2023-03-02T13:13:12.969Z,100999.16
2023-03-02T13:15:51.116Z,101002.69
2023-03-02T13:18:27.713Z,100988.53
2023-03-02T13:20:54.755Z,100988.97
2023-03-02T13:23:21.861Z,100985.72
2023-03-02T13:25:58.900Z,100992.06
2023-03-02T13:28:32.475Z,100985.19
2023-03-02T13:31:01.622Z,100991.19
2023-03-02T13:33:30.070Z,100992.88
2023-03-02T13:35:57.254Z,100989.16
2023-03-02T13:38:26.650Z,100990.41
2023-03-02T13:41:02.197Z,100985.72
2023-03-02T13:43:34.824Z,100988.38
2023-03-02T13:46:25.873Z,100998.81
2023-03-02T13:49:10.234Z,100987.59
2023-03-02T13:51:44.221Z,100996.34
2023-03-02T13:54:25.972Z,100990.81
2023-03-02T13:56:53.841Z,100987.16
2023-03-02T13:59:30.296Z,100983.25
2023-03-02T14:01:58.688Z,100989.97
2023-03-02T14:04:25.759Z,100988.84
2023-03-02T14:06:56.439Z,100983.28
2023-03-02T14:09:23.377Z,100980.38
2023-03-02T14:11:52.339Z,100982.16
2023-03-02T14:14:29.224Z,100971.44
2023-03-02T14:16:56.436Z,100974.22
2023-03-02T14:19:23.159Z,100965.59
2023-03-02T14:21:50.048Z,100965.47
2023-03-02T14:24:25.594Z,100965.28
2023-03-02T14:26:52.714Z,100973.09
2023-03-02T14:29:33.582Z,100969.47
2023-03-02T14:32:13.973Z,100971.88
2023-03-02T14:34:44.815Z,100967.53
2023-03-02T14:37:27.249Z,100959.72
2023-03-02T14:39:55.718Z,100959.28
2023-03-02T14:42:32.575Z,100956.09
2023-03-02T14:45:00.025Z,100956.81
2023-03-02T14:47:26.929Z,100951.78
2023-03-02T14:50:00.934Z,100952.59
2023-03-02T14:52:46.333Z,100946.31
2023-03-02T14:55:31.393Z,100944.94
2023-03-02T14:58:02.071Z,100944.53
2023-03-02T15:00:29.149Z,100942.84
2023-03-02T15:02:59.479Z,100936.31
2023-03-02T15:05:26.493Z,100931.56
2023-03-02T15:07:53.812Z,100937.56
2023-03-02T15:10:22.113Z,100950.38
2023-03-02T15:12:49.108Z,100941.59
2023-03-02T15:15:21.636Z,100940.00
2023-03-02T15:17:52.285Z,100942.81
2023-03-02T15:20:19.353Z,100943.66
2023-03-02T15:22:47.252Z,100944.16
2023-03-02T15:25:14.104Z,100941.84
2023-03-02T15:27:41.807Z,100945.19
2023-03-02T15:30:16.954Z,100939.78
2023-03-02T15:32:43.850Z,100943.03
2023-03-02T15:35:12.422Z,100946.63
2023-03-02T15:37:39.444Z,100944.19
2023-03-02T15:40:06.928Z,100937.91
2023-03-02T15:42:33.833Z,100933.66
2023-03-02T15:45:00.475Z,100924.09
2023-03-02T15:47:27.208Z,100924.09
2023-03-02T15:49:53.960Z,100932.63
2023-03-02T15:52:23.465Z,100923.16
2023-03-02T15:54:53.202Z,100921.72
2023-03-02T15:57:27.548Z,100916.72
2023-03-02T15:59:54.357Z,100912.53
2023-03-02T16:02:24.171Z,100917.22
2023-03-02T16:04:53.380Z,100912.47
2023-03-02T16:07:28.096Z,100915.47
2023-03-02T16:09:57.698Z,100907.31
2023-03-02T16:12:25.681Z,100915.16
2023-03-02T16:14:54.819Z,100906.13
2023-03-02T16:17:25.258Z,100925.53
2023-03-02T16:19:55.125Z,100911.06
2023-03-02T16:22:24.876Z,100917.06
2023-03-02T16:24:54.188Z,100917.56
2023-03-02T16:27:20.809Z,100913.41
2023-03-02T16:29:49.384Z,100914.22
2023-03-02T16:32:16.222Z,100916.19
2023-03-02T16:34:43.001Z,100918.59
2023-03-02T16:37:11.951Z,100914.41
2023-03-02T16:39:38.745Z,100915.75
2023-03-02T16:42:05.469Z,100918.00
2023-03-02T16:44:32.544Z,100922.00
2023-03-02T16:46:59.491Z,100918.06
2023-03-02T16:49:26.156Z,100925.13
2023-03-02T16:51:57.875Z,100925.22
2023-03-02T16:54:25.316Z,100928.75
2023-03-02T16:56:52.066Z,100923.78
2023-03-02T16:59:18.748Z,100926.09
2023-03-02T17:01:52.678Z,100930.06
2023-03-02T17:04:21.195Z,100930.41
2023-03-02T17:07:03.642Z,100934.97
2023-03-02T17:09:31.675Z,100937.59
2023-03-02T17:11:58.539Z,100937.03
2023-03-02T17:14:25.519Z,100943.03
2023-03-02T17:16:56.929Z,100947.22
2023-03-02T17:19:24.606Z,100947.81
2023-03-02T17:21:51.425Z,100943.75
2023-03-02T17:24:23.784Z,100949.75
2023-03-02T17:26:50.619Z,100956.22
2023-03-02T17:29:17.353Z,100950.81
2023-03-02T17:31:44.860Z,100966.75
2023-03-02T17:34:12.170Z,100965.41
2023-03-02T17:36:50.418Z,100962.31
2023-03-02T17:39:17.193Z,100960.88
2023-03-02T17:41:43.922Z,100963.59
2023-03-02T17:44:16.807Z,100969.63
2023-03-02T17:46:45.554Z,100971.31
2023-03-02T17:49:13.792Z,100970.09
2023-03-02T17:51:49.690Z,100966.25
2023-03-02T17:54:16.514Z,100965.03
2023-03-02T17:56:43.268Z,100966.63
2023-03-02T17:59:22.711Z,100968.53
2023-03-02T18:01:49.480Z,100965.19
2023-03-02T18:04:16.251Z,100969.50
2023-03-02T18:06:54.036Z,100964.94
2023-03-02T18:09:20.883Z,100958.00
2023-03-02T18:11:47.870Z,100956.06
2023-03-02T18:14:19.986Z,100959.91
2023-03-02T18:16:47.075Z,100953.69
2023-03-02T18:19:13.775Z,100956.91
2023-03-02T18:21:52.116Z,100953.06
2023-03-02T18:24:18.934Z,100958.72
2023-03-02T18:26:45.746Z,100971.16
2023-03-02T18:29:12.583Z,100966.00
2023-03-02T18:31:39.458Z,100971.88
2023-03-02T18:34:06.163Z,100971.66
2023-03-02T18:36:35.282Z,100971.66
2023-03-02T18:39:05.079Z,100971.75
2023-03-02T18:41:38.133Z,100980.84
2023-03-02T18:44:07.985Z,100982.53
2023-03-02T18:46:37.744Z,100975.09
2023-03-02T18:49:29.669Z,100984.81
2023-03-02T18:51:56.971Z,100983.97
2023-03-02T18:54:24.335Z,100976.91
2023-03-02T18:56:51.167Z,100991.16
2023-03-02T18:59:28.497Z,100987.22
2023-03-02T19:01:55.556Z,100992.72
2023-03-02T19:04:26.423Z,100991.28
2023-03-02T19:07:00.938Z,100988.50
2023-03-02T19:09:27.803Z,100972.94
2023-03-02T19:11:54.793Z,100966.25
2023-03-02T19:14:31.087Z,100950.22
2023-03-02T19:16:58.048Z,100923.38
2023-03-02T19:19:24.836Z,100924.69
2023-03-02T19:21:56.129Z,100916.06
2023-03-02T19:24:27.340Z,100913.69
2023-03-02T19:26:54.105Z,100894.28
2023-03-02T19:29:31.077Z,100887.56
2023-03-02T19:32:54.049Z,100879.91
2023-03-02T19:35:26.218Z,100879.44
2023-03-02T19:37:53.060Z,100878.97
2023-03-02T19:40:30.222Z,100880.38
2023-03-02T19:42:57.174Z,100876.19
2023-03-02T19:45:28.711Z,100882.66
2023-03-02T19:47:58.668Z,100878.81
2023-03-02T19:50:26.528Z,100878.69
2023-03-02T19:52:54.954Z,100881.34
2023-03-02T19:55:31.999Z,100887.91
2023-03-02T19:58:02.419Z,100885.16
2023-03-02T20:00:31.417Z,100887.19
2023-03-02T20:03:01.499Z,100874.25
2023-03-02T20:05:28.564Z,100875.22
2023-03-02T20:07:55.608Z,100873.53
2023-03-02T20:10:32.888Z,100871.50
2023-03-02T20:13:00.242Z,100879.28
2023-03-02T20:15:31.986Z,100874.00
2023-03-02T20:18:02.692Z,100879.78
2023-03-02T20:20:31.254Z,100873.16
2023-03-02T20:23:00.255Z,100879.16
2023-03-02T20:25:34.041Z,100878.22
2023-03-02T20:28:05.590Z,100880.50
2023-03-02T20:30:36.601Z,100871.97
2023-03-02T20:33:05.633Z,100878.09
2023-03-02T20:35:34.236Z,100869.59
2023-03-02T20:38:05.488Z,100869.59
2023-03-02T20:40:35.957Z,100872.13
2023-03-02T20:43:03.246Z,100875.34
2023-03-02T20:45:30.199Z,100877.16
2023-03-02T20:48:04.857Z,100876.06
2023-03-02T20:50:35.309Z,100876.91
2023-03-02T20:53:03.478Z,100870.53
2023-03-02T20:55:47.870Z,100863.59
2023-03-02T20:58:29.432Z,100874.13
2023-03-02T21:01:09.182Z,100874.84
2023-03-02T21:03:47.334Z,100881.53
2023-03-02T21:06:15.505Z,100886.47
2023-03-02T21:08:43.643Z,100887.19
2023-03-02T21:11:22.394Z,100888.97
2023-03-02T21:13:49.840Z,100883.81
2023-03-02T21:16:26.657Z,100876.75
2023-03-02T21:18:55.008Z,100881.75
2023-03-02T21:21:32.520Z,100884.63
2023-03-02T21:24:07.680Z,100885.34
2023-03-02T21:26:37.135Z,100891.47
2023-03-02T21:29:07.567Z,100872.50
2023-03-02T21:31:34.593Z,100889.28
2023-03-02T21:34:09.357Z,100880.56
2023-03-02T21:36:36.246Z,100885.09
2023-03-02T21:39:05.084Z,100876.34
2023-03-02T21:41:40.371Z,100877.66
2023-03-02T21:44:07.628Z,100882.94
2023-03-02T21:46:35.749Z,100879.44
2023-03-02T21:49:08.408Z,100885.69
2023-03-02T21:51:38.421Z,100889.66
2023-03-02T21:54:09.202Z,100910.53
2023-03-02T21:56:47.236Z,100922.75
2023-03-02T21:59:14.136Z,100928.13
2023-03-02T22:01:41.267Z,100923.31
2023-03-02T22:04:08.109Z,100930.28
2023-03-02T22:06:40.925Z,100920.81
2023-03-02T22:09:07.630Z,100927.53
2023-03-02T22:11:36.613Z,100922.47
2023-03-02T22:14:14.862Z,100918.00
2023-03-02T22:16:43.386Z,100920.50
2023-03-02T22:19:29.581Z,100918.97
2023-03-02T22:22:00.927Z,100917.25
2023-03-02T22:24:30.610Z,100911.06
2023-03-02T22:27:25.928Z,100915.13
2023-03-02T22:30:00.354Z,100927.75
2023-03-02T22:32:29.624Z,100934.22
2023-03-02T22:35:00.345Z,100934.56
2023-03-02T22:37:29.351Z,100925.09
2023-03-02T22:39:58.152Z,100931.44
2023-03-02T22:42:30.039Z,100933.53
2023-03-02T22:45:10.143Z,100935.91
2023-03-02T22:47:51.295Z,100944.31
2023-03-02T22:50:31.257Z,100928.25
2023-03-02T22:52:58.529Z,100934.09
2023-03-02T22:55:35.766Z,100934.47
2023-03-02T22:58:36.979Z,100932.38
2023-03-02T23:01:38.142Z,100930.50
2023-03-02T23:04:09.483Z,100927.88
2023-03-02T23:06:57.082Z,100922.75
2023-03-02T23:09:42.161Z,100915.88
2023-03-02T23:12:17.337Z,100916.38
2023-03-02T23:15:10.277Z,100919.16
2023-03-02T23:17:48.469Z,100912.31
2023-03-02T23:20:16.791Z,100916.00
2023-03-02T23:22:44.597Z,100916.50
2023-03-02T23:25:15.947Z,100915.91
2023-03-02T23:27:42.812Z,100921.66
2023-03-02T23:30:10.051Z,100924.31
2023-03-02T23:32:37.107Z,100920.00
2023-03-02T23:35:04.182Z,100909.94
2023-03-02T23:37:34.196Z,100910.91
2023-03-02T23:40:01.003Z,100902.28
2023-03-02T23:42:27.763Z,100905.63
2023-03-02T23:45:03.184Z,100906.69
2023-03-02T23:47:30.012Z,100906.22
2023-03-02T23:49:57.155Z,100908.88
2023-03-02T23:52:23.985Z,100912.59
2023-03-02T23:54:53.624Z,100916.66
2023-03-02T23:57:24.148Z,100908.75
2023-03-02T23:59:54.195Z,100917.84
